Time;durP1;ratioP1;P1;durP2;ratioP2;P2;SDS_P1;SDS_P2;PMS_P1;PMS_P2;Temp;Humidity;BMP_temperature;BMP_pressure;BME280_temperature;BME280_humidity;BME280_pressure;Samples;Min_cycle;Max_cycle;Signal;HPM_P1;HPM_P2
2024/04/16 00:02:17;;;;;;;13.90;7.20;;;;;;;16.60;51.46;98980.29;108066;1254;61225;-66
2024/04/16 00:04:43;;;;;;;15.60;9.20;;;;;;;16.51;51.69;98974.23;108067;1253;74773;-66
2024/04/16 00:07:10;;;;;;;18.10;11.20;;;;;;;16.48;51.84;98971.84;108041;1254;69086;-66
2024/04/16 00:09:37;;;;;;;19.60;10.00;;;;;;;16.50;51.76;98963.16;108004;1257;72541;-66
2024/04/16 00:12:04;;;;;;;17.60;9.40;;;;;;;16.54;51.62;98990.89;107971;1253;61092;-65
2024/04/16 00:14:54;;;;;;;20.80;10.30;;;;;;;16.53;51.50;99010.24;107990;1253;61148;-66
2024/04/16 00:17:23;;;;;;;21.40;10.50;;;;;;;16.48;51.50;99006.24;107965;1253;73736;-65
2024/04/16 00:19:50;;;;;;;16.50;9.80;;;;;;;16.49;51.59;98995.00;107962;1253;70213;-66
2024/04/16 00:22:16;;;;;;;15.40;9.40;;;;;;;16.37;52.08;98991.70;108034;1254;72509;-65
2024/04/16 00:24:43;;;;;;;13.90;9.00;;;;;;;16.35;52.28;98996.29;108109;1254;61098;-66
2024/04/16 00:27:09;;;;;;;13.80;9.20;;;;;;;16.38;52.13;99012.67;108000;1254;61269;-66
2024/04/16 00:29:36;;;;;;;19.40;9.70;;;;;;;16.49;51.81;99043.69;108084;1257;61138;-66
2024/04/16 00:32:03;;;;;;;25.40;11.80;;;;;;;16.49;51.89;99064.80;108122;1254;61168;-66
2024/04/16 00:34:30;;;;;;;19.80;11.30;;;;;;;16.43;52.22;99059.06;108007;1254;72578;-65
2024/04/16 00:37:00;;;;;;;27.20;12.40;;;;;;;16.45;52.25;99040.11;108024;1253;61471;-66
2024/04/16 00:39:26;;;;;;;22.50;11.80;;;;;;;16.46;52.29;99018.95;107984;1254;61091;-65
2024/04/16 00:41:53;;;;;;;22.40;11.90;;;;;;;16.50;52.32;99016.48;108019;1254;75226;-65
2024/04/16 00:44:20;;;;;;;22.40;10.80;;;;;;;16.46;52.37;99003.04;108011;1254;70034;-67
2024/04/16 00:46:46;;;;;;;17.60;10.40;;;;;;;16.50;52.22;98991.19;108041;1253;61155;-66
2024/04/16 00:49:13;;;;;;;27.80;12.00;;;;;;;16.43;52.18;98986.24;108015;1254;61320;-67
2024/04/16 00:51:40;;;;;;;20.30;10.80;;;;;;;16.37;52.40;98971.34;107994;1253;61225;-66
2024/04/16 00:54:06;;;;;;;20.90;11.80;;;;;;;16.33;52.37;98961.00;108017;1254;61072;-66
2024/04/16 00:56:34;;;;;;;25.20;11.80;;;;;;;16.32;52.44;98944.58;107940;1258;61243;-68
2024/04/16 00:59:02;;;;;;;20.80;10.20;;;;;;;16.32;52.62;98941.40;107930;1253;72479;-66
2024/04/16 01:01:29;;;;;;;21.80;10.90;;;;;;;16.32;52.75;98926.41;108048;1253;61216;-65
2024/04/16 01:03:56;;;;;;;20.20;10.30;;;;;;;16.37;52.66;98892.64;108050;1253;61364;-65
2024/04/16 01:06:23;;;;;;;25.00;10.70;;;;;;;16.39;52.57;98882.28;108045;1253;74466;-65
2024/04/16 01:08:50;;;;;;;14.60;7.90;;;;;;;16.41;52.60;98886.20;108073;1253;70023;-65
2024/04/16 01:11:27;;;;;;;22.00;9.20;;;;;;;16.45;52.37;98882.80;108022;1257;73738;-66
2024/04/16 01:13:56;;;;;;;17.00;8.90;;;;;;;16.35;52.30;98872.09;108050;1254;61238;-65
2024/04/16 01:16:23;;;;;;;15.50;9.20;;;;;;;16.37;52.27;98900.67;108139;1254;61256;-65
2024/04/16 01:18:49;;;;;;;23.70;11.10;;;;;;;16.36;52.20;98920.20;108051;1254;75182;-66
2024/04/16 01:21:16;;;;;;;27.90;13.50;;;;;;;16.39;52.14;98925.84;108083;1254;61083;-65
2024/04/16 01:23:42;;;;;;;22.40;12.20;;;;;;;16.44;51.97;98920.27;108056;1254;72939;-65
2024/04/16 01:26:09;;;;;;;19.80;10.90;;;;;;;16.52;51.90;98918.05;108020;1253;61122;-65
2024/04/16 01:28:36;;;;;;;26.30;12.80;;;;;;;16.66;51.71;98909.13;108073;1254;61202;-65
2024/04/16 01:31:02;;;;;;;17.20;8.90;;;;;;;16.60;51.79;98909.98;108100;1253;74111;-65
2024/04/16 01:33:29;;;;;;;23.50;11.10;;;;;;;16.58;51.85;98921.64;108062;1254;70873;-65
2024/04/16 01:35:56;;;;;;;18.50;9.50;;;;;;;16.63;51.82;98921.59;108118;1254;72255;-65
2024/04/16 01:38:22;;;;;;;13.80;8.80;;;;;;;16.71;51.73;98920.38;108061;1253;61240;-65
2024/04/16 01:40:49;;;;;;;16.50;10.60;;;;;;;16.78;51.59;98910.63;108105;1254;61126;-65
2024/04/16 01:43:16;;;;;;;15.60;8.80;;;;;;;16.77;51.61;98911.09;108140;1254;74332;-66
2024/04/16 01:45:42;;;;;;;19.30;11.90;;;;;;;16.78;51.62;98913.08;108083;1254;69107;-65
2024/04/16 01:48:09;;;;;;;25.00;11.80;;;;;;;16.75;51.73;98911.73;108113;1257;72983;-65
2024/04/16 01:50:35;;;;;;;22.90;11.60;;;;;;;16.65;52.11;98909.56;108043;1254;61320;-65
2024/04/16 01:53:02;;;;;;;22.50;12.50;;;;;;;16.64;52.09;98903.57;108047;1253;61176;-66
2024/04/16 01:55:29;;;;;;;17.80;8.80;;;;;;;16.68;52.09;98893.03;108045;1253;74188;-66
2024/04/16 01:58:00;;;;;;;21.30;11.60;;;;;;;16.63;52.21;98888.48;108044;1254;69760;-66
2024/04/16 02:00:27;;;;;;;19.30;11.40;;;;;;;16.67;51.94;98889.38;108111;1254;72557;-66
2024/04/16 02:02:55;;;;;;;17.30;10.40;;;;;;;16.72;51.85;98884.90;107986;1254;61253;-66
2024/04/16 02:05:22;;;;;;;19.10;10.90;;;;;;;16.57;52.27;98884.14;108074;1253;61243;-65
2024/04/16 02:07:48;;;;;;;18.70;10.80;;;;;;;16.66;52.08;98888.40;108041;1257;75172;-65
2024/04/16 02:10:15;;;;;;;25.00;12.10;;;;;;;16.66;52.24;98905.94;107993;1254;71304;-65
2024/04/16 02:12:42;;;;;;;19.60;10.30;;;;;;;16.78;51.98;98912.44;108064;1254;72769;-65
2024/04/16 02:15:08;;;;;;;14.40;9.50;;;;;;;16.81;51.93;98909.67;107999;1254;61920;-65
2024/04/16 02:17:37;;;;;;;21.30;10.60;;;;;;;16.80;51.89;98914.18;108038;1254;61107;-66
2024/04/16 02:20:05;;;;;;;17.80;10.00;;;;;;;16.75;52.01;98930.38;108057;1253;74624;-66
2024/04/16 02:22:31;;;;;;;18.60;10.00;;;;;;;16.62;52.41;98932.31;108069;1254;70537;-66
2024/04/16 02:24:58;;;;;;;18.10;10.80;;;;;;;16.53;52.66;98939.95;107965;1254;73223;-64
2024/04/16 02:27:25;;;;;;;19.60;9.80;;;;;;;16.62;52.54;98959.08;108048;1253;61108;-65
2024/04/16 02:29:51;;;;;;;19.70;10.20;;;;;;;16.55;52.75;98967.58;108098;1254;60085;-65
2024/04/16 02:32:18;;;;;;;19.90;10.30;;;;;;;16.37;53.25;98970.83;108102;1254;62988;-65
2024/04/16 02:34:44;;;;;;;19.80;10.80;;;;;;;16.36;53.29;98985.91;108122;1254;70711;-66
2024/04/16 02:37:11;;;;;;;20.60;11.10;;;;;;;16.43;53.22;98998.80;108038;1254;61090;-66
2024/04/16 02:39:38;;;;;;;20.40;10.40;;;;;;;16.50;53.14;99003.43;108058;1254;62962;-66
2024/04/16 02:42:05;;;;;;;19.20;10.50;;;;;;;16.52;53.06;99005.39;108063;1254;61005;-66
2024/04/16 02:44:31;;;;;;;20.10;10.80;;;;;;;16.48;53.23;99008.03;108063;1254;74620;-67
2024/04/16 02:46:58;;;;;;;20.00;11.50;;;;;;;16.45;53.33;99004.34;108068;1254;70162;-66
2024/04/16 02:49:24;;;;;;;21.30;12.30;;;;;;;16.50;53.24;98997.88;108058;1255;61138;-66
2024/04/16 02:51:51;;;;;;;17.30;10.80;;;;;;;16.58;52.91;98991.80;107994;1254;61206;-66
2024/04/16 02:54:17;;;;;;;22.90;11.80;;;;;;;16.58;52.97;98985.23;108067;1254;60966;-65
2024/04/16 02:56:44;;;;;;;22.60;11.80;;;;;;;16.66;52.84;98969.94;108044;1254;75329;-65
2024/04/16 02:59:10;;;;;;;22.20;10.50;;;;;;;16.65;52.81;98956.58;108061;1254;70684;-66
2024/04/16 03:01:37;;;;;;;16.30;11.20;;;;;;;16.53;53.07;98941.87;108022;1253;61084;-66
2024/04/16 03:04:04;;;;;;;20.60;12.20;;;;;;;16.51;53.01;98932.61;108002;1254;61337;-65
2024/04/16 03:06:30;;;;;;;18.30;10.90;;;;;;;16.52;52.92;98926.73;108012;1254;61110;-66
2024/04/16 03:08:57;;;;;;;19.40;12.40;;;;;;;16.56;52.86;98917.01;108025;1257;74903;-65
2024/04/16 03:11:24;;;;;;;19.70;11.60;;;;;;;16.53;52.91;98902.52;108061;1254;60377;-65
2024/04/16 03:13:50;;;;;;;16.50;10.40;;;;;;;16.48;52.96;98900.14;107988;1254;72508;-65
2024/04/16 03:16:17;;;;;;;22.80;12.10;;;;;;;16.58;52.87;98898.45;108001;1257;61132;-66
2024/04/16 03:18:45;;;;;;;19.90;11.00;;;;;;;16.62;52.74;98885.88;108064;1257;60415;-66
2024/04/16 03:21:11;;;;;;;16.10;9.30;;;;;;;16.62;52.69;98887.16;108088;1253;73393;-66
2024/04/16 03:23:38;;;;;;;15.00;7.00;;;;;;;16.61;52.47;98879.21;108094;1254;71053;-65
2024/04/16 03:26:04;;;;;;;19.10;8.70;;;;;;;16.62;52.16;98867.83;108020;1257;73068;-66
2024/04/16 03:28:31;;;;;;;16.90;8.60;;;;;;;16.73;51.70;98862.86;108022;1254;61344;-66
2024/04/16 03:30:58;;;;;;;17.30;9.20;;;;;;;16.85;51.27;98848.73;108165;1253;61234;-65
2024/04/16 03:33:25;;;;;;;17.90;7.80;;;;;;;16.89;51.02;98841.67;108158;1254;74664;-66
2024/04/16 03:35:53;;;;;;;14.80;8.20;;;;;;;16.81;50.98;98832.94;108136;1254;61026;-65
2024/04/16 03:38:20;;;;;;;17.10;8.40;;;;;;;16.67;51.11;98827.38;108124;1254;72738;-65
2024/04/16 03:41:02;;;;;;;17.70;9.30;;;;;;;16.65;51.12;98821.70;108052;1254;61260;-64
2024/04/16 03:43:30;;;;;;;19.10;9.60;;;;;;;16.69;51.08;98820.42;108123;1253;61138;-64
2024/04/16 03:45:56;;;;;;;20.10;10.80;;;;;;;16.65;51.23;98821.14;108101;1252;74430;-66
2024/04/16 03:48:24;;;;;;;19.80;12.00;;;;;;;16.77;51.09;98807.91;108118;1254;70062;-64
2024/04/16 03:50:51;;;;;;;25.00;12.70;;;;;;;16.76;51.30;98791.13;108228;1253;73174;-66
2024/04/16 03:53:17;;;;;;;21.80;12.80;;;;;;;16.70;51.46;98788.60;108166;1252;61233;-65
2024/04/16 03:55:44;;;;;;;20.20;11.90;;;;;;;16.73;51.51;98783.95;108136;1252;61211;-66
2024/04/16 03:58:11;;;;;;;21.30;12.70;;;;;;;16.81;51.60;98787.36;108161;1253;74602;-66
2024/04/16 04:03:23;;;;;;;27.40;17.30;;;;;;;16.54;52.30;98792.04;108142;1254;72875;-65
2024/04/16 04:05:50;;;;;;;32.80;18.90;;;;;;;16.52;52.65;98794.17;108299;1254;61081;-65
2024/04/16 04:08:17;;;;;;;33.00;18.90;;;;;;;16.49;52.91;98793.35;108158;1253;61112;-65
2024/04/16 04:10:43;;;;;;;34.90;19.60;;;;;;;16.38;53.28;98795.49;108192;1253;61189;-65
2024/04/16 04:13:10;;;;;;;39.20;20.70;;;;;;;16.47;53.32;98787.86;108159;1253;70835;-65
2024/04/16 04:15:37;;;;;;;29.20;16.30;;;;;;;16.48;53.39;98782.63;108138;1253;73167;-65
2024/04/16 04:18:04;;;;;;;33.10;19.30;;;;;;;16.75;52.98;98792.45;108095;1253;61126;-66
2024/04/16 04:20:32;;;;;;;34.60;19.70;;;;;;;16.81;52.73;98799.10;108195;1254;61228;-65
2024/04/16 04:22:58;;;;;;;26.90;16.90;;;;;;;16.88;52.67;98807.38;108145;1254;75037;-65
2024/04/16 04:25:25;;;;;;;42.90;22.30;;;;;;;16.86;52.85;98821.16;108121;1254;70616;-66
2024/04/16 04:27:51;;;;;;;31.50;19.10;;;;;;;16.94;52.71;98830.79;108178;1254;59116;-66
2024/04/16 04:30:18;;;;;;;32.20;19.90;;;;;;;16.92;52.55;98851.52;108135;1253;61238;-66
2024/04/16 04:32:51;;;;;;;33.10;17.70;;;;;;;17.00;52.35;98866.67;108178;1254;61148;-65
2024/04/16 04:37:26;;;;;;;36.40;18.10;;;;;;;13.50;61.71;98903.17;104851;1291;601189;-65
2024/04/16 04:39:54;;;;;;;29.50;18.00;;;;;;;13.98;60.61;98909.73;107265;1266;60886;-65
2024/04/16 04:42:21;;;;;;;24.60;13.70;;;;;;;14.48;59.49;98917.34;107254;1265;59603;-65
2024/04/16 04:44:49;;;;;;;32.10;18.70;;;;;;;14.40;59.56;98923.86;107936;1253;73027;-65
2024/04/16 04:47:19;;;;;;;27.30;17.70;;;;;;;14.36;59.93;98927.33;107940;1253;70688;-66
2024/04/16 04:49:47;;;;;;;30.00;19.60;;;;;;;14.56;59.56;98932.48;107929;1254;72708;-65
2024/04/16 04:52:14;;;;;;;26.70;17.30;;;;;;;14.14;60.56;98933.50;107996;1251;209152;-66
2024/04/16 04:54:41;;;;;;;24.40;15.20;;;;;;;14.15;60.64;98939.98;108168;1256;59568;-66
2024/04/16 04:57:09;;;;;;;25.90;16.00;;;;;;;14.22;60.74;98936.49;108113;1251;73995;-65
2024/04/16 04:59:36;;;;;;;28.90;16.80;;;;;;;14.36;60.54;98939.51;108189;1251;70718;-65
2024/04/16 05:02:04;;;;;;;27.90;17.40;;;;;;;14.39;60.60;98934.04;108156;1253;74023;-65
2024/04/16 05:04:31;;;;;;;33.10;17.60;;;;;;;14.30;60.89;98921.97;108159;1253;62979;-65
2024/04/16 05:06:58;;;;;;;35.80;19.20;;;;;;;14.38;60.79;98914.31;108153;1253;60515;-65
2024/04/16 05:09:26;;;;;;;40.30;20.80;;;;;;;14.43;60.59;98913.25;108216;1254;73987;-65
2024/04/16 05:11:53;;;;;;;36.50;19.30;;;;;;;14.50;60.43;98912.38;108179;1258;71161;-65
2024/04/16 05:14:21;;;;;;;44.30;21.90;;;;;;;14.54;60.42;98912.11;108155;1252;74922;-65
2024/04/16 05:16:48;;;;;;;31.70;18.50;;;;;;;14.55;60.42;98910.64;108241;1253;60505;-65
2024/04/16 05:19:16;;;;;;;35.70;19.60;;;;;;;14.44;60.71;98901.71;108192;1253;60558;-66
2024/04/16 05:21:43;;;;;;;27.20;16.50;;;;;;;14.53;60.54;98901.07;108155;1251;72693;-65
2024/04/16 05:24:12;;;;;;;30.00;16.20;;;;;;;14.57;60.13;98896.94;107991;1251;71055;-65
2024/04/16 05:26:39;;;;;;;29.40;15.80;;;;;;;14.79;59.41;98886.81;108178;1257;71487;-65
2024/04/16 05:29:06;;;;;;;37.10;19.40;;;;;;;14.74;59.27;98882.42;108242;1254;60961;-65
2024/04/16 05:31:34;;;;;;;32.40;18.90;;;;;;;14.63;59.40;98868.91;108187;1250;60325;-65
2024/04/16 05:34:01;;;;;;;37.20;20.80;;;;;;;14.71;58.87;98859.45;108101;1253;74858;-65
2024/04/16 05:36:29;;;;;;;37.70;18.70;;;;;;;14.65;58.95;98847.42;108173;1254;70208;-65
2024/04/16 05:38:56;;;;;;;36.60;17.30;;;;;;;14.68;58.92;98845.23;108112;1254;71855;-65
2024/04/16 05:41:23;;;;;;;36.50;20.00;;;;;;;14.65;59.17;98849.35;108198;1254;60175;-65
2024/04/16 05:43:51;;;;;;;33.60;18.80;;;;;;;14.74;59.40;98850.40;108206;1251;62212;-65
2024/04/16 05:46:19;;;;;;;29.00;16.80;;;;;;;14.73;59.65;98844.14;108138;1252;73012;-65
2024/04/16 05:48:47;;;;;;;26.00;15.90;;;;;;;14.62;59.51;98836.15;108010;1252;69505;-65
2024/04/16 05:51:15;;;;;;;24.10;14.20;;;;;;;14.55;59.31;98825.21;108102;1254;73594;-65
2024/04/16 05:53:42;;;;;;;26.10;15.50;;;;;;;14.73;58.88;98818.52;108220;1254;60306;-65
2024/04/16 05:56:09;;;;;;;25.20;14.60;;;;;;;15.04;58.31;98818.33;108092;1253;60397;-65
2024/04/16 05:58:37;;;;;;;25.50;14.20;;;;;;;15.01;58.88;98820.83;108186;1254;76059;-65
2024/04/16 06:01:07;;;;;;;29.30;16.70;;;;;;;15.24;58.53;98820.52;108088;1254;71555;-65
2024/04/16 06:03:35;;;;;;;34.80;18.60;;;;;;;15.49;58.10;98824.90;108078;1254;73263;-66
2024/04/16 06:06:02;;;;;;;32.50;17.90;;;;;;;15.70;57.52;98833.21;108112;1254;60332;-65
2024/04/16 06:08:30;;;;;;;32.90;20.20;;;;;;;15.87;57.18;98839.81;108009;1254;61829;-65
2024/04/16 06:10:57;;;;;;;28.70;18.20;;;;;;;15.92;56.83;98845.30;108118;1252;74508;-66
2024/04/16 06:13:24;;;;;;;24.30;16.90;;;;;;;15.97;56.82;98846.52;108207;1254;72604;-65
2024/04/16 06:15:52;;;;;;;30.70;17.70;;;;;;;15.96;56.72;98846.05;108060;1254;73226;-65
2024/04/16 06:18:20;;;;;;;29.10;18.80;;;;;;;15.85;56.77;98846.95;108061;1254;61582;-65
2024/04/16 06:20:47;;;;;;;32.70;19.00;;;;;;;15.70;57.01;98849.46;108115;1254;60288;-65
2024/04/16 06:23:15;;;;;;;34.00;20.30;;;;;;;15.69;56.89;98847.60;108087;1252;73952;-65
2024/04/16 06:25:42;;;;;;;29.60;18.00;;;;;;;15.68;57.13;98839.19;108171;1254;72652;-65
2024/04/16 06:28:09;;;;;;;30.00;18.40;;;;;;;15.79;57.38;98837.10;108022;1254;73672;-64
2024/04/16 06:30:37;;;;;;;26.40;17.70;;;;;;;15.90;57.30;98840.47;108231;1254;60373;-65
2024/04/16 06:33:04;;;;;;;30.40;17.80;;;;;;;16.02;57.45;98835.27;108176;1259;60329;-65
2024/04/16 06:35:32;;;;;;;25.00;15.90;;;;;;;16.11;57.16;98832.63;108084;1253;74811;-66
2024/04/16 06:37:59;;;;;;;27.40;16.50;;;;;;;15.98;57.46;98829.39;108023;1253;70191;-66
2024/04/16 06:40:26;;;;;;;28.30;15.90;;;;;;;16.06;57.07;98822.95;108136;1253;71806;-66
2024/04/16 06:42:54;;;;;;;26.20;16.10;;;;;;;16.22;56.73;98820.83;108140;1257;64051;-66
2024/04/16 06:45:22;;;;;;;20.90;13.40;;;;;;;16.37;56.71;98818.84;108029;1253;61853;-65
2024/04/16 06:47:49;;;;;;;21.00;12.10;;;;;;;16.57;55.72;98813.42;108143;1253;75408;-66
2024/04/16 06:50:17;;;;;;;18.40;11.10;;;;;;;16.85;55.55;98808.52;108100;1253;69248;-65
2024/04/16 06:52:44;;;;;;;13.60;9.50;;;;;;;16.89;54.92;98794.30;108083;1257;74948;-66
2024/04/16 06:55:12;;;;;;;16.80;10.30;;;;;;;16.96;54.49;98789.84;107943;1258;61106;-66
2024/04/16 06:57:39;;;;;;;17.10;11.00;;;;;;;17.16;54.04;98794.71;108060;1257;62359;-66
2024/04/16 07:00:07;;;;;;;16.40;10.30;;;;;;;17.36;54.36;98792.29;107913;1253;74272;-66
2024/04/16 07:02:35;;;;;;;15.90;9.60;;;;;;;17.02;54.71;98800.50;107983;1253;72632;-64
2024/04/16 07:05:03;;;;;;;16.70;10.10;;;;;;;16.60;55.78;98803.30;108064;1254;72802;-65
2024/04/16 07:07:30;;;;;;;13.50;8.30;;;;;;;16.55;56.36;98805.83;108032;1253;63205;-66
2024/04/16 07:09:57;;;;;;;16.30;11.20;;;;;;;16.33;56.50;98808.34;108009;1253;62159;-65
2024/04/16 07:12:25;;;;;;;21.80;11.30;;;;;;;16.36;56.85;98796.73;108104;1255;76156;-65
2024/04/16 07:14:53;;;;;;;16.20;11.00;;;;;;;16.56;56.55;98792.61;108014;1253;69138;-66
2024/04/16 07:17:22;;;;;;;21.00;13.00;;;;;;;16.05;57.39;98798.59;107959;1253;71958;-66
2024/04/16 07:19:49;;;;;;;19.30;11.70;;;;;;;16.01;57.76;98800.30;108020;1254;62729;-66
2024/04/16 07:22:16;;;;;;;19.80;12.00;;;;;;;15.82;58.86;98808.02;108032;1257;60213;-66
2024/04/16 07:24:43;;;;;;;21.00;12.70;;;;;;;16.38;57.46;98810.94;107943;1253;72726;-66
2024/04/16 07:27:11;;;;;;;22.00;12.80;;;;;;;16.25;57.61;98811.67;107930;1253;69208;-66
2024/04/16 07:29:38;;;;;;;20.90;13.30;;;;;;;16.40;57.69;98819.13;107965;1254;72063;-66
2024/04/16 07:32:06;;;;;;;22.70;13.00;;;;;;;16.58;57.61;98822.62;107944;1254;60443;-66
2024/04/16 07:34:33;;;;;;;24.20;14.00;;;;;;;16.68;57.23;98819.79;108120;1257;62250;-66
2024/04/16 07:37:00;;;;;;;19.60;11.90;;;;;;;16.76;57.27;98821.30;108051;1258;72745;-66
2024/04/16 07:39:28;;;;;;;22.50;13.80;;;;;;;16.72;57.40;98818.55;108042;1257;70597;-65
2024/04/16 07:41:55;;;;;;;21.40;13.60;;;;;;;16.78;57.52;98818.45;108102;1254;72166;-65
2024/04/16 07:44:22;;;;;;;26.00;15.20;;;;;;;17.20;56.68;98813.85;107925;1254;62894;-65
2024/04/16 07:46:49;;;;;;;21.90;12.80;;;;;;;17.29;56.38;98817.91;108025;1254;62210;-66
2024/04/16 07:49:17;;;;;;;21.90;14.20;;;;;;;17.45;55.69;98819.89;108046;1254;73024;-67
2024/04/16 07:51:45;;;;;;;23.10;13.60;;;;;;;17.54;55.65;98813.08;108050;1259;69259;-66
2024/04/16 07:54:13;;;;;;;23.70;14.70;;;;;;;17.47;55.87;98813.66;108104;1253;73039;-67
2024/04/16 07:56:40;;;;;;;23.60;13.50;;;;;;;17.41;55.99;98815.42;108109;1253;61767;-66
2024/04/16 07:59:07;;;;;;;22.10;13.80;;;;;;;17.24;56.63;98816.05;108069;1254;60258;-66
2024/04/16 08:01:35;;;;;;;25.10;16.10;;;;;;;17.20;56.97;98810.30;108018;1258;72993;-66
2024/04/16 08:04:02;;;;;;;18.60;12.00;;;;;;;17.43;57.00;98812.83;108012;1253;70771;-67
2024/04/16 08:06:30;;;;;;;24.00;14.20;;;;;;;17.54;56.67;98809.58;107921;1255;71637;-66
2024/04/16 08:08:57;;;;;;;27.40;15.90;;;;;;;17.61;56.65;98815.30;108010;1253;63913;-67
2024/04/16 08:11:25;;;;;;;23.40;14.80;;;;;;;17.60;56.73;98820.23;108082;1254;60273;-65
2024/04/16 08:13:53;;;;;;;22.00;13.50;;;;;;;17.54;56.92;98819.83;107981;1258;75194;-66
2024/04/16 08:16:20;;;;;;;18.80;12.60;;;;;;;17.55;57.02;98819.56;108008;1258;69373;-66
2024/04/16 08:18:48;;;;;;;24.50;15.90;;;;;;;17.51;57.54;98815.52;107955;1255;73248;-67
2024/04/16 08:21:17;;;;;;;25.10;15.20;;;;;;;17.84;56.54;98807.34;107991;1257;62500;-66
2024/04/16 08:23:44;;;;;;;23.00;14.30;;;;;;;17.93;56.27;98806.73;108048;1254;60306;-66
2024/04/16 08:26:12;;;;;;;23.00;13.90;;;;;;;17.91;56.38;98800.61;108034;1258;74131;-65
2024/04/16 08:28:42;;;;;;;20.80;13.50;;;;;;;17.97;56.23;98789.10;108001;1254;70855;-65
2024/04/16 08:31:09;;;;;;;25.40;13.50;;;;;;;18.16;55.99;98787.04;108047;1257;74803;-66
2024/04/16 08:33:37;;;;;;;22.10;13.60;;;;;;;18.18;55.87;98795.95;108064;1259;61479;-66
2024/04/16 08:36:05;;;;;;;19.20;12.20;;;;;;;18.10;55.95;98796.65;108039;1252;60408;-66
2024/04/16 08:38:33;;;;;;;28.00;14.10;;;;;;;18.08;56.17;98792.40;108125;1259;76548;-66
2024/04/16 08:41:04;;;;;;;24.00;14.70;;;;;;;18.34;55.76;98785.13;107970;1254;71294;-66
2024/04/16 08:43:34;;;;;;;24.20;13.90;;;;;;;18.39;55.68;98792.09;108019;1257;71499;-65
2024/04/16 08:46:02;;;;;;;25.60;14.50;;;;;;;18.51;55.55;98792.09;107960;1254;61116;-66
2024/04/16 08:48:29;;;;;;;28.90;16.60;;;;;;;18.67;55.37;98793.66;107957;1253;61085;-66
2024/04/16 08:50:57;;;;;;;23.20;14.70;;;;;;;18.70;55.40;98786.08;107933;1254;75599;-66
2024/04/16 08:53:24;;;;;;;27.10;17.50;;;;;;;18.64;55.66;98777.02;107962;1253;70672;-66
2024/04/16 08:55:52;;;;;;;25.60;15.00;;;;;;;18.84;55.29;98773.97;108007;1254;71439;-63
2024/04/16 08:58:21;;;;;;;21.60;12.70;;;;;;;19.02;54.37;98778.09;108098;1254;62057;-66
2024/04/16 09:00:49;;;;;;;23.20;13.80;;;;;;;19.32;53.97;98772.46;108063;1254;61020;-66
2024/04/16 09:03:16;;;;;;;25.50;12.90;;;;;;;19.41;53.70;98783.39;107836;1254;75005;-66
2024/04/16 09:05:44;;;;;;;28.40;15.80;;;;;;;19.49;53.25;98787.04;108038;1254;70846;-66
2024/04/16 09:08:11;;;;;;;22.80;13.20;;;;;;;19.67;53.06;98785.19;107954;1257;72804;-66
2024/04/16 09:10:39;;;;;;;21.10;12.90;;;;;;;19.61;52.97;98787.92;108053;1254;61096;-66
2024/04/16 09:13:13;;;;;;;24.30;13.30;;;;;;;19.67;52.65;98791.46;107943;1254;61129;-66
2024/04/16 09:15:41;;;;;;;23.30;12.80;;;;;;;19.79;52.76;98787.48;108016;1254;74780;-66
2024/04/16 09:18:08;;;;;;;23.30;13.00;;;;;;;20.00;52.31;98781.38;108112;1261;70389;-66
2024/04/16 09:20:36;;;;;;;20.70;11.90;;;;;;;19.89;52.20;98778.83;107997;1259;73141;-66
2024/04/16 09:23:03;;;;;;;20.40;10.30;;;;;;;19.89;52.58;98774.73;108071;1253;63924;-66
2024/04/16 09:25:38;;;;;;;18.00;10.30;;;;;;;19.75;52.70;98776.04;107963;1258;61830;-67
2024/04/16 09:28:05;;;;;;;20.00;10.80;;;;;;;19.75;52.70;98768.80;108051;1254;72744;-66
2024/04/16 09:30:33;;;;;;;19.70;11.10;;;;;;;20.02;52.32;98764.20;107948;1254;68255;-67
2024/04/16 09:33:03;;;;;;;15.70;9.70;;;;;;;20.27;51.89;98765.11;108045;1258;71527;-66
2024/04/16 09:35:38;;;;;;;19.80;10.00;;;;;;;20.22;51.88;98770.73;108031;1256;61148;-66
2024/04/16 09:38:08;;;;;;;18.70;9.30;;;;;;;20.40;51.51;98772.17;107934;1257;61158;-66
2024/04/16 09:40:36;;;;;;;18.70;9.40;;;;;;;20.69;51.04;98766.98;107957;1254;75156;-66
2024/04/16 09:43:04;;;;;;;19.20;9.40;;;;;;;21.11;50.23;98762.08;108005;1254;70769;-66
2024/04/16 09:45:33;;;;;;;21.60;9.50;;;;;;;21.12;49.75;98757.09;108011;1254;73232;-66
2024/04/16 09:48:01;;;;;;;18.30;8.20;;;;;;;21.21;49.55;98759.03;107942;1253;61061;-65
2024/04/16 09:50:29;;;;;;;19.70;9.70;;;;;;;21.35;48.86;98754.83;107895;1253;61137;-65
2024/04/16 09:52:59;;;;;;;14.70;8.50;;;;;;;21.32;48.88;98751.49;107879;1257;76935;-66
2024/04/16 09:55:26;;;;;;;16.80;8.40;;;;;;;21.40;48.82;98743.73;107926;1254;72788;-66
2024/04/16 09:57:54;;;;;;;18.80;9.40;;;;;;;21.56;48.32;98745.59;107900;1254;73070;-66
2024/04/16 10:00:21;;;;;;;15.10;7.80;;;;;;;21.52;48.66;98746.91;108053;1254;61107;-66
2024/04/16 10:02:49;;;;;;;19.70;8.30;;;;;;;21.73;48.43;98736.13;108036;1254;60021;-66
2024/04/16 10:05:16;;;;;;;14.80;8.50;;;;;;;21.92;48.43;98739.55;108011;1257;74928;-66
2024/04/16 10:07:47;;;;;;;14.80;7.70;;;;;;;22.14;48.30;98735.79;108038;1254;71573;-68
2024/04/16 10:10:14;;;;;;;16.70;7.20;;;;;;;22.46;47.87;98733.58;107940;1254;71512;-66
2024/04/16 10:12:42;;;;;;;13.90;6.80;;;;;;;22.64;47.10;98729.98;107871;1259;61504;-66
2024/04/16 10:15:12;;;;;;;15.40;8.40;;;;;;;22.71;46.85;98735.98;108058;1254;61192;-67
2024/04/16 10:17:52;;;;;;;18.40;7.80;;;;;;;22.93;46.40;98735.11;108103;1252;74887;-66
2024/04/16 10:20:23;;;;;;;15.90;7.60;;;;;;;23.15;46.48;98728.84;108045;1254;71602;-67
2024/04/16 10:22:58;;;;;;;13.90;7.20;;;;;;;23.71;45.38;98726.04;107996;1257;72759;-66
2024/04/16 10:25:35;;;;;;;15.30;7.80;;;;;;;23.61;45.07;98725.88;107996;1254;61232;-66
2024/04/16 10:28:04;;;;;;;15.70;7.60;;;;;;;23.56;45.42;98735.03;107995;1254;61151;-66
2024/04/16 10:30:32;;;;;;;17.20;7.70;;;;;;;23.37;45.51;98730.20;108020;1259;74423;-66
2024/04/16 10:32:59;;;;;;;16.90;8.60;;;;;;;23.64;45.25;98738.11;108034;1258;71263;-66
2024/04/16 10:35:28;;;;;;;15.60;7.70;;;;;;;23.70;45.09;98739.35;107993;1255;74894;-66
2024/04/16 10:38:00;;;;;;;18.00;8.30;;;;;;;23.83;44.49;98737.02;107981;1255;63874;-66
2024/04/16 10:40:28;;;;;;;18.20;8.60;;;;;;;23.98;44.33;98735.13;107881;1254;61131;-66
2024/04/16 10:42:57;;;;;;;22.10;9.00;;;;;;;24.09;44.16;98734.16;108062;1254;73611;-67
2024/04/16 10:45:24;;;;;;;18.50;8.50;;;;;;;24.11;44.21;98735.02;108079;1254;69645;-67
2024/04/16 10:47:52;;;;;;;18.60;6.90;;;;;;;24.08;44.29;98725.84;108013;1253;73490;-66
2024/04/16 10:50:20;;;;;;;22.30;7.40;;;;;;;24.16;44.11;98721.38;108000;1254;62162;-66
2024/04/16 10:52:47;;;;;;;16.80;6.40;;;;;;;24.22;43.61;98713.00;108114;1257;61084;-67
2024/04/16 10:55:14;;;;;;;14.70;7.60;;;;;;;24.47;43.72;98692.64;108064;1254;76965;-66
2024/04/16 10:57:44;;;;;;;16.10;6.10;;;;;;;24.61;43.87;98679.73;108018;1252;70458;-66
2024/04/16 11:00:13;;;;;;;13.80;6.20;;;;;;;24.91;42.92;98675.80;108028;1254;71957;-66
2024/04/16 11:02:40;;;;;;;13.60;6.00;;;;;;;25.03;42.43;98666.04;108046;1253;61103;-67
2024/04/16 11:05:08;;;;;;;15.50;6.30;;;;;;;24.87;42.54;98663.65;108023;1254;61147;-67
2024/04/16 11:07:36;;;;;;;14.30;5.60;;;;;;;24.68;42.79;98662.98;108006;1254;76031;-66
2024/04/16 11:10:05;;;;;;;18.30;5.80;;;;;;;24.50;43.18;98667.27;108013;1259;71020;-66
2024/04/16 11:12:33;;;;;;;12.50;4.60;;;;;;;24.39;42.96;98674.77;107932;1254;71464;-66
2024/04/16 11:15:02;;;;;;;15.20;5.10;;;;;;;24.38;43.03;98676.86;107989;1257;61935;-66
2024/04/16 11:17:31;;;;;;;12.00;5.00;;;;;;;24.53;42.61;98676.70;108083;1254;61217;-66
2024/04/16 11:19:59;;;;;;;8.20;3.90;;;;;;;24.61;42.22;98665.56;108116;1253;74247;-66